CCA941 ZBAA-OMDB
Flight info
| Callsign | CCA941 |
|---|---|
| Flight time | N/A |
| Altitude | 32100 |
| Route | IDKEX2G IDKEX B339 ASILA A575 UPREK W28 LAGEB W66 NUKTI B215 IBANO W187 TUSLI W112 PURPA/N0472F321 G325 BIVIN R462 VUSET A454 PASOV B540 MIVEK P574 IMPED |
| Aircraft | B77W/H-SDE1E2E3FGHIJ2J3J4J5M1RWXY/LB1D1 |
Departure
| Time | N/A |
|---|---|
| Airport | Beijing Capital International Airport (ZBAA) |
Arrival
| Time | 2026-04-21 14:01 |
|---|---|
| Airport | Dubai International Airport (OMDB) |
| Time | Latitude | Longitude | Altitude | Speed | Heading |
|---|---|---|---|---|---|
| 2026-04-21 11:30 | 33.89818 | 71.43307 | 35804 ft | 473 kts | 224° |
| 2026-04-21 11:30 | 33.84826 | 71.38151 | 35803 ft | 473 kts | 224° |
| 2026-04-21 11:31 | 33.79850 | 71.32979 | 35788 ft | 473 kts | 225° |
| 2026-04-21 11:31 | 33.74894 | 71.27818 | 35799 ft | 472 kts | 224° |
| 2026-04-21 11:32 | 33.69927 | 71.22660 | 35814 ft | 470 kts | 225° |
| 2026-04-21 11:32 | 33.64991 | 71.17543 | 35817 ft | 470 kts | 225° |
| 2026-04-21 11:33 | 33.60012 | 71.12387 | 35831 ft | 471 kts | 225° |
| 2026-04-21 11:33 | 33.55081 | 71.07289 | 35819 ft | 471 kts | 224° |
| 2026-04-21 11:34 | 33.50109 | 71.02161 | 35806 ft | 471 kts | 224° |
| 2026-04-21 11:34 | 33.44723 | 70.97578 | 35839 ft | 477 kts | 216° |
| 2026-04-21 11:35 | 33.39066 | 70.93417 | 35810 ft | 477 kts | 216° |
| 2026-04-21 11:35 | 33.33413 | 70.89242 | 35816 ft | 477 kts | 216° |
| 2026-04-21 11:36 | 33.27780 | 70.85048 | 35789 ft | 477 kts | 216° |
| 2026-04-21 11:36 | 33.22151 | 70.80853 | 35785 ft | 477 kts | 216° |
| 2026-04-21 11:37 | 33.16560 | 70.76690 | 35764 ft | 477 kts | 216° |
| 2026-04-21 11:37 | 33.10929 | 70.72507 | 35776 ft | 477 kts | 216° |
| 2026-04-21 11:38 | 33.05288 | 70.68325 | 35765 ft | 477 kts | 216° |
| 2026-04-21 11:38 | 32.99647 | 70.64147 | 35765 ft | 478 kts | 216° |
| 2026-04-21 11:39 | 32.94002 | 70.59972 | 35762 ft | 478 kts | 216° |
| 2026-04-21 11:39 | 32.88368 | 70.55726 | 35759 ft | 478 kts | 217° |
| 2026-04-21 11:40 | 32.84623 | 70.52854 | 35750 ft | 479 kts | 218° |
| 2026-04-21 11:40 | 32.81823 | 70.50708 | 35760 ft | 480 kts | 218° |
| 2026-04-21 11:41 | 32.76195 | 70.46413 | 35769 ft | 481 kts | 217° |
| 2026-04-21 11:41 | 32.70582 | 70.42147 | 35758 ft | 482 kts | 217° |
| 2026-04-21 11:42 | 32.64928 | 70.37857 | 35767 ft | 482 kts | 217° |
| 2026-04-21 11:42 | 32.59186 | 70.33672 | 35756 ft | 484 kts | 215° |
| 2026-04-21 11:43 | 32.53352 | 70.29665 | 35776 ft | 484 kts | 215° |
| 2026-04-21 11:43 | 32.47605 | 70.25692 | 35776 ft | 483 kts | 215° |
| 2026-04-21 11:44 | 32.41779 | 70.21630 | 35775 ft | 483 kts | 216° |
| 2026-04-21 11:44 | 32.35984 | 70.17590 | 35782 ft | 482 kts | 216° |
| 2026-04-21 11:45 | 32.30255 | 70.13489 | 35786 ft | 480 kts | 216° |
| 2026-04-21 11:45 | 32.24552 | 70.09360 | 35770 ft | 479 kts | 216° |
| 2026-04-21 11:46 | 32.18903 | 70.05264 | 35788 ft | 478 kts | 216° |
| 2026-04-21 11:46 | 32.13197 | 70.01159 | 35787 ft | 478 kts | 216° |
| 2026-04-21 11:47 | 32.07546 | 69.97107 | 35780 ft | 478 kts | 216° |
| 2026-04-21 11:47 | 32.02785 | 69.93698 | 35764 ft | 479 kts | 216° |
| 2026-04-21 11:48 | 31.97077 | 69.89620 | 35778 ft | 479 kts | 216° |
| 2026-04-21 11:48 | 31.91405 | 69.85564 | 35772 ft | 481 kts | 216° |
| 2026-04-21 11:49 | 31.85677 | 69.81476 | 35782 ft | 482 kts | 216° |
| 2026-04-21 11:49 | 31.79932 | 69.77383 | 35797 ft | 483 kts | 216° |
| 2026-04-21 11:50 | 31.74174 | 69.73288 | 35782 ft | 483 kts | 216° |
| 2026-04-21 11:50 | 31.68410 | 69.69196 | 35808 ft | 483 kts | 215° |
| 2026-04-21 11:51 | 31.62661 | 69.65118 | 35803 ft | 483 kts | 215° |
| 2026-04-21 11:51 | 31.56945 | 69.61070 | 35802 ft | 482 kts | 215° |
| 2026-04-21 11:52 | 31.51200 | 69.57005 | 35810 ft | 482 kts | 215° |
| 2026-04-21 11:52 | 31.45463 | 69.52954 | 35811 ft | 481 kts | 215° |
| 2026-04-21 11:53 | 31.39726 | 69.48908 | 35811 ft | 481 kts | 216° |
| 2026-04-21 11:53 | 31.34394 | 69.44309 | 35830 ft | 474 kts | 226° |
| 2026-04-21 11:54 | 31.29852 | 69.38797 | 35826 ft | 470 kts | 232° |
| 2026-04-21 11:54 | 31.25466 | 69.33129 | 35823 ft | 470 kts | 232° |
| 2026-04-21 11:55 | 31.21086 | 69.27510 | 35834 ft | 470 kts | 231° |
| 2026-04-21 11:55 | 31.16659 | 69.21874 | 35831 ft | 471 kts | 231° |
| 2026-04-21 11:56 | 31.12215 | 69.16234 | 35818 ft | 471 kts | 231° |
| 2026-04-21 11:56 | 31.07771 | 69.10605 | 35833 ft | 471 kts | 231° |
| 2026-04-21 11:57 | 31.03352 | 69.05013 | 35835 ft | 471 kts | 231° |
| 2026-04-21 11:57 | 30.98904 | 68.99391 | 35843 ft | 472 kts | 231° |
| 2026-04-21 11:58 | 30.94451 | 68.93773 | 35834 ft | 471 kts | 231° |
| 2026-04-21 11:58 | 30.89997 | 68.88160 | 35836 ft | 471 kts | 231° |
| 2026-04-21 11:59 | 30.85542 | 68.82555 | 35836 ft | 471 kts | 231° |
| 2026-04-21 11:59 | 30.81110 | 68.76988 | 35817 ft | 471 kts | 231° |
| 2026-04-21 12:00 | 30.76645 | 68.71387 | 35830 ft | 471 kts | 231° |
| 2026-04-21 12:00 | 30.72179 | 68.65792 | 35834 ft | 472 kts | 231° |
| 2026-04-21 12:01 | 30.67707 | 68.60199 | 35832 ft | 473 kts | 231° |
| 2026-04-21 12:01 | 30.63241 | 68.54620 | 35844 ft | 473 kts | 230° |
| 2026-04-21 12:02 | 30.56516 | 68.46237 | 35851 ft | 474 kts | 230° |
| 2026-04-21 12:03 | 30.52015 | 68.40635 | 35858 ft | 474 kts | 230° |
| 2026-04-21 12:03 | 30.47515 | 68.35044 | 35847 ft | 474 kts | 230° |
| 2026-04-21 12:04 | 30.43019 | 68.29464 | 35871 ft | 473 kts | 230° |
| 2026-04-21 12:04 | 30.38521 | 68.23891 | 35872 ft | 473 kts | 230° |
| 2026-04-21 12:05 | 30.34027 | 68.18330 | 35878 ft | 473 kts | 230° |
| 2026-04-21 12:05 | 30.29553 | 68.12800 | 35877 ft | 473 kts | 230° |
| 2026-04-21 12:06 | 30.25047 | 68.07250 | 35859 ft | 473 kts | 230° |
| 2026-04-21 12:06 | 30.20512 | 68.01725 | 35858 ft | 473 kts | 230° |
| 2026-04-21 12:07 | 30.15981 | 67.96214 | 35858 ft | 473 kts | 230° |
| 2026-04-21 12:07 | 30.11449 | 67.90700 | 35808 ft | 473 kts | 230° |
| 2026-04-21 12:08 | 30.06955 | 67.85222 | 35820 ft | 472 kts | 230° |
| 2026-04-21 12:08 | 30.02471 | 67.79662 | 35806 ft | 472 kts | 230° |
| 2026-04-21 12:09 | 29.97994 | 67.74101 | 35759 ft | 473 kts | 230° |
| 2026-04-21 12:09 | 29.93500 | 67.68540 | 35764 ft | 472 kts | 230° |
| 2026-04-21 12:10 | 29.89043 | 67.63039 | 35772 ft | 472 kts | 230° |
| 2026-04-21 12:10 | 29.88284 | 67.62103 | 35766 ft | 472 kts | 230° |
| 2026-04-21 12:11 | 29.84509 | 67.57450 | 35738 ft | 472 kts | 230° |
| 2026-04-21 12:11 | 29.80012 | 67.51915 | 35747 ft | 473 kts | 230° |
| 2026-04-21 12:12 | 29.75512 | 67.46381 | 35760 ft | 473 kts | 230° |
| 2026-04-21 12:12 | 29.71021 | 67.40863 | 35773 ft | 473 kts | 230° |
| 2026-04-21 12:13 | 29.66560 | 67.35372 | 35770 ft | 473 kts | 230° |
| 2026-04-21 12:13 | 29.62063 | 67.29840 | 35795 ft | 473 kts | 230° |
| 2026-04-21 12:14 | 29.57554 | 67.24303 | 35796 ft | 473 kts | 229° |
| 2026-04-21 12:14 | 29.53050 | 67.18779 | 35816 ft | 472 kts | 229° |
| 2026-04-21 12:15 | 29.48576 | 67.13302 | 35835 ft | 474 kts | 229° |
| 2026-04-21 12:15 | 29.44057 | 67.07777 | 35851 ft | 475 kts | 229° |
| 2026-04-21 12:16 | 29.39510 | 67.02225 | 35878 ft | 476 kts | 229° |
| 2026-04-21 12:16 | 29.34994 | 66.96718 | 35850 ft | 477 kts | 229° |
| 2026-04-21 12:17 | 29.30440 | 66.91174 | 35873 ft | 477 kts | 229° |
| 2026-04-21 12:17 | 29.25889 | 66.85639 | 35870 ft | 477 kts | 229° |
| 2026-04-21 12:18 | 29.21331 | 66.80105 | 35876 ft | 477 kts | 229° |
| 2026-04-21 12:18 | 29.16776 | 66.74582 | 35892 ft | 477 kts | 229° |
| 2026-04-21 12:19 | 29.12221 | 66.69065 | 35878 ft | 476 kts | 229° |
| 2026-04-21 12:19 | 29.07702 | 66.63598 | 35881 ft | 475 kts | 229° |
| 2026-04-21 12:20 | 29.03133 | 66.58081 | 35882 ft | 475 kts | 229° |
| 2026-04-21 12:20 | 28.98629 | 66.52638 | 35903 ft | 474 kts | 229° |
| 2026-04-21 12:21 | 28.94092 | 66.47155 | 35896 ft | 474 kts | 229° |
| 2026-04-21 12:21 | 28.89555 | 66.41678 | 35898 ft | 474 kts | 229° |
| 2026-04-21 12:22 | 28.85025 | 66.36216 | 35883 ft | 474 kts | 229° |
| 2026-04-21 12:22 | 28.80504 | 66.30775 | 35882 ft | 474 kts | 229° |
| 2026-04-21 12:23 | 28.75961 | 66.25314 | 35882 ft | 475 kts | 228° |
| 2026-04-21 12:23 | 28.71404 | 66.19843 | 35871 ft | 476 kts | 228° |
| 2026-04-21 12:24 | 28.66829 | 66.14359 | 35868 ft | 477 kts | 228° |
| 2026-04-21 12:24 | 28.62286 | 66.08920 | 35853 ft | 477 kts | 228° |
| 2026-04-21 12:25 | 28.57673 | 66.03405 | 35845 ft | 478 kts | 228° |
| 2026-04-21 12:25 | 28.53122 | 65.97971 | 35820 ft | 478 kts | 228° |
| 2026-04-21 12:26 | 28.48537 | 65.92504 | 35823 ft | 477 kts | 228° |
| 2026-04-21 12:26 | 28.43944 | 65.87035 | 35807 ft | 477 kts | 228° |
| 2026-04-21 12:27 | 28.39363 | 65.81588 | 35804 ft | 477 kts | 228° |
| 2026-04-21 12:27 | 28.34779 | 65.76143 | 35796 ft | 477 kts | 228° |
| 2026-04-21 12:28 | 28.30185 | 65.70695 | 35773 ft | 477 kts | 228° |
| 2026-04-21 12:28 | 28.25588 | 65.65250 | 35771 ft | 478 kts | 228° |
| 2026-04-21 12:29 | 28.21016 | 65.59841 | 35764 ft | 477 kts | 228° |
| 2026-04-21 12:29 | 28.16417 | 65.54407 | 35757 ft | 477 kts | 228° |
| 2026-04-21 12:30 | 28.11813 | 65.48975 | 35757 ft | 477 kts | 228° |
| 2026-04-21 12:30 | 28.07223 | 65.43565 | 35751 ft | 476 kts | 228° |
| 2026-04-21 12:31 | 28.02621 | 65.38149 | 35757 ft | 476 kts | 228° |
| 2026-04-21 12:31 | 27.98023 | 65.32744 | 35740 ft | 476 kts | 228° |
| 2026-04-21 12:32 | 27.93460 | 65.27385 | 35761 ft | 476 kts | 228° |
| 2026-04-21 12:32 | 27.88866 | 65.21995 | 35746 ft | 476 kts | 228° |
| 2026-04-21 12:33 | 27.84268 | 65.16607 | 35748 ft | 476 kts | 228° |
| 2026-04-21 12:33 | 27.79677 | 65.11234 | 35764 ft | 475 kts | 228° |
| 2026-04-21 12:34 | 27.75082 | 65.05864 | 35756 ft | 475 kts | 228° |
| 2026-04-21 12:34 | 27.71261 | 65.01404 | 35756 ft | 475 kts | 228° |
| 2026-04-21 12:35 | 27.66664 | 64.96044 | 35771 ft | 476 kts | 228° |
| 2026-04-21 12:35 | 27.61293 | 64.89790 | 35774 ft | 476 kts | 228° |
| 2026-04-21 12:36 | 27.57459 | 64.85332 | 35773 ft | 476 kts | 228° |
| 2026-04-21 12:36 | 27.52839 | 64.79966 | 35775 ft | 476 kts | 228° |
| 2026-04-21 12:37 | 27.48217 | 64.74606 | 35788 ft | 477 kts | 228° |
| 2026-04-21 12:37 | 27.43596 | 64.69253 | 35786 ft | 477 kts | 228° |
| 2026-04-21 12:38 | 27.38975 | 64.63906 | 35787 ft | 476 kts | 228° |
| 2026-04-21 12:38 | 27.34342 | 64.58552 | 35799 ft | 476 kts | 228° |
| 2026-04-21 12:39 | 27.29713 | 64.53210 | 35794 ft | 477 kts | 228° |
| 2026-04-21 12:39 | 27.25080 | 64.47869 | 35792 ft | 477 kts | 228° |
| 2026-04-21 12:40 | 27.20447 | 64.42537 | 35807 ft | 477 kts | 228° |
| 2026-04-21 12:40 | 27.18907 | 64.40766 | 35805 ft | 477 kts | 228° |
| 2026-04-21 12:41 | 27.15946 | 64.37361 | 35803 ft | 477 kts | 228° |
| 2026-04-21 12:41 | 27.11302 | 64.32029 | 35793 ft | 478 kts | 228° |
| 2026-04-21 12:42 | 27.06652 | 64.26695 | 35807 ft | 478 kts | 228° |
| 2026-04-21 12:42 | 27.01999 | 64.21365 | 35796 ft | 478 kts | 228° |
| 2026-04-21 12:43 | 26.97330 | 64.16022 | 35805 ft | 478 kts | 228° |
| 2026-04-21 12:43 | 26.92802 | 64.10621 | 35796 ft | 478 kts | 231° |
| 2026-04-21 12:44 | 26.88405 | 64.05025 | 35800 ft | 478 kts | 231° |
| 2026-04-21 12:44 | 26.84019 | 63.99424 | 35800 ft | 478 kts | 231° |
| 2026-04-21 12:45 | 26.79614 | 63.93833 | 35797 ft | 478 kts | 231° |
| 2026-04-21 12:45 | 26.75201 | 63.88256 | 35794 ft | 478 kts | 231° |
| 2026-04-21 12:46 | 26.70778 | 63.82676 | 35797 ft | 478 kts | 231° |
| 2026-04-21 12:46 | 26.66366 | 63.77117 | 35783 ft | 478 kts | 231° |
| 2026-04-21 12:47 | 26.61980 | 63.71597 | 35801 ft | 478 kts | 231° |
| 2026-04-21 12:47 | 26.57556 | 63.66035 | 35796 ft | 478 kts | 231° |
| 2026-04-21 12:48 | 26.53135 | 63.60484 | 35798 ft | 479 kts | 231° |
| 2026-04-21 12:48 | 26.48700 | 63.54923 | 35804 ft | 479 kts | 231° |
| 2026-04-21 12:49 | 26.44288 | 63.49397 | 35791 ft | 479 kts | 231° |
| 2026-04-21 12:49 | 26.39848 | 63.43844 | 35795 ft | 479 kts | 231° |
| 2026-04-21 12:50 | 26.35420 | 63.38311 | 35799 ft | 479 kts | 230° |
| 2026-04-21 12:50 | 26.30963 | 63.32751 | 35779 ft | 480 kts | 230° |
| 2026-04-21 12:51 | 26.26513 | 63.27205 | 35795 ft | 480 kts | 230° |
| 2026-04-21 12:51 | 26.22055 | 63.21657 | 35790 ft | 480 kts | 230° |
| 2026-04-21 12:52 | 26.17599 | 63.16116 | 35791 ft | 480 kts | 230° |
| 2026-04-21 12:52 | 26.13130 | 63.10568 | 35779 ft | 481 kts | 230° |
| 2026-04-21 12:53 | 26.08662 | 63.05027 | 35783 ft | 481 kts | 230° |
| 2026-04-21 12:53 | 26.04192 | 62.99489 | 35780 ft | 481 kts | 230° |
| 2026-04-21 12:54 | 25.99749 | 62.93992 | 35781 ft | 481 kts | 230° |
| 2026-04-21 12:54 | 25.95273 | 62.88450 | 35778 ft | 481 kts | 230° |
| 2026-04-21 12:55 | 25.90800 | 62.82909 | 35774 ft | 482 kts | 230° |
| 2026-04-21 12:55 | 25.86319 | 62.77365 | 35778 ft | 483 kts | 230° |
| 2026-04-21 12:56 | 25.81831 | 62.71818 | 35777 ft | 483 kts | 230° |
| 2026-04-21 12:56 | 25.77332 | 62.66266 | 35783 ft | 483 kts | 230° |
| 2026-04-21 12:57 | 25.72831 | 62.60718 | 35787 ft | 484 kts | 230° |
| 2026-04-21 12:57 | 25.68328 | 62.55175 | 35787 ft | 484 kts | 230° |
| 2026-04-21 12:58 | 25.63851 | 62.49669 | 35792 ft | 483 kts | 230° |
| 2026-04-21 12:58 | 25.59339 | 62.44129 | 35796 ft | 483 kts | 230° |
| 2026-04-21 12:59 | 25.54834 | 62.38602 | 35790 ft | 483 kts | 230° |
| 2026-04-21 12:59 | 25.50333 | 62.33087 | 35802 ft | 483 kts | 230° |
| 2026-04-21 13:00 | 25.45821 | 62.27567 | 35798 ft | 483 kts | 230° |
| 2026-04-21 13:00 | 25.41314 | 62.22058 | 35806 ft | 482 kts | 230° |
| 2026-04-21 13:01 | 25.36837 | 62.16592 | 35804 ft | 482 kts | 230° |
| 2026-04-21 13:01 | 25.32335 | 62.11102 | 35801 ft | 482 kts | 230° |
| 2026-04-21 13:02 | 25.27834 | 62.05621 | 35802 ft | 481 kts | 230° |
| 2026-04-21 13:02 | 25.21087 | 61.97416 | 35813 ft | 481 kts | 230° |
| 2026-04-21 13:03 | 25.16586 | 61.91949 | 35809 ft | 481 kts | 230° |
| 2026-04-21 13:03 | 25.12074 | 61.86474 | 35808 ft | 482 kts | 230° |
| 2026-04-21 13:04 | 25.07712 | 61.80873 | 35802 ft | 480 kts | 237° |
| 2026-04-21 13:04 | 25.04276 | 61.74578 | 35811 ft | 477 kts | 247° |
| 2026-04-21 13:05 | 25.01594 | 61.67889 | 35814 ft | 477 kts | 249° |
| 2026-04-21 13:05 | 24.98941 | 61.61227 | 35808 ft | 478 kts | 248° |
| 2026-04-21 13:06 | 24.96227 | 61.54531 | 35809 ft | 478 kts | 248° |
| 2026-04-21 13:06 | 24.93503 | 61.47848 | 35808 ft | 478 kts | 248° |
| 2026-04-21 13:07 | 24.90799 | 61.41143 | 35811 ft | 478 kts | 248° |
| 2026-04-21 13:07 | 24.88140 | 61.34484 | 35811 ft | 477 kts | 248° |
| 2026-04-21 13:08 | 24.85447 | 61.27752 | 35812 ft | 477 kts | 248° |
| 2026-04-21 13:08 | 24.82766 | 61.21073 | 35814 ft | 477 kts | 248° |
| 2026-04-21 13:09 | 24.80092 | 61.14427 | 35811 ft | 477 kts | 248° |
| 2026-04-21 13:09 | 24.77400 | 61.07745 | 35811 ft | 477 kts | 248° |
| 2026-04-21 13:10 | 24.75615 | 61.03319 | 35809 ft | 477 kts | 248° |
| 2026-04-21 13:10 | 24.74407 | 61.00327 | 35809 ft | 478 kts | 248° |
| 2026-04-21 13:11 | 24.71702 | 60.93630 | 35805 ft | 478 kts | 248° |
| 2026-04-21 13:11 | 24.68951 | 60.86984 | 35818 ft | 479 kts | 247° |
| 2026-04-21 13:12 | 24.66081 | 60.80356 | 35806 ft | 480 kts | 247° |
| 2026-04-21 13:12 | 24.63207 | 60.73711 | 35799 ft | 481 kts | 247° |
| 2026-04-21 13:13 | 24.60344 | 60.67049 | 35814 ft | 482 kts | 247° |
| 2026-04-21 13:13 | 24.57471 | 60.60382 | 35808 ft | 483 kts | 247° |
| 2026-04-21 13:14 | 24.54588 | 60.53744 | 35813 ft | 484 kts | 247° |
| 2026-04-21 13:14 | 24.51682 | 60.47071 | 35800 ft | 484 kts | 247° |
| 2026-04-21 13:15 | 24.48776 | 60.40401 | 35799 ft | 484 kts | 247° |
| 2026-04-21 13:15 | 24.45868 | 60.33731 | 35803 ft | 484 kts | 247° |
| 2026-04-21 13:16 | 24.42967 | 60.27089 | 35800 ft | 484 kts | 247° |
| 2026-04-21 13:16 | 24.40053 | 60.20424 | 35801 ft | 483 kts | 247° |
| 2026-04-21 13:17 | 24.37160 | 60.13815 | 35795 ft | 483 kts | 248° |
| 2026-04-21 13:17 | 24.34244 | 60.07169 | 35799 ft | 483 kts | 248° |
| 2026-04-21 13:18 | 24.31327 | 60.00531 | 35797 ft | 483 kts | 248° |
| 2026-04-21 13:18 | 24.28406 | 59.93891 | 35794 ft | 484 kts | 248° |
| 2026-04-21 13:19 | 24.25480 | 59.87247 | 35794 ft | 483 kts | 248° |
| 2026-04-21 13:19 | 24.22550 | 59.80605 | 35793 ft | 483 kts | 248° |
| 2026-04-21 13:20 | 24.19622 | 59.73976 | 35795 ft | 483 kts | 248° |
| 2026-04-21 13:20 | 24.16693 | 59.67353 | 35782 ft | 483 kts | 248° |
| 2026-04-21 13:21 | 24.14258 | 59.61855 | 35791 ft | 483 kts | 248° |
| 2026-04-21 13:21 | 24.11323 | 59.55234 | 35796 ft | 483 kts | 248° |
| 2026-04-21 13:22 | 24.07907 | 59.47545 | 35792 ft | 482 kts | 248° |
| 2026-04-21 13:22 | 24.05437 | 59.42013 | 35790 ft | 482 kts | 248° |
| 2026-04-21 13:23 | 24.02515 | 59.35473 | 35790 ft | 481 kts | 248° |
| 2026-04-21 13:23 | 23.99579 | 59.28897 | 35798 ft | 480 kts | 248° |
| 2026-04-21 13:24 | 23.96649 | 59.22321 | 35792 ft | 480 kts | 248° |
| 2026-04-21 13:24 | 23.94230 | 59.15635 | 35783 ft | 466 kts | 266° |
| 2026-04-21 13:25 | 23.94134 | 59.12118 | 35796 ft | 461 kts | 277° |
| 2026-04-21 13:25 | 23.94663 | 59.08671 | 35792 ft | 459 kts | 288° |
| 2026-04-21 13:25 | 23.96879 | 59.02142 | 35789 ft | 459 kts | 293° |
| 2026-04-21 13:26 | 23.99239 | 58.95638 | 35795 ft | 461 kts | 292° |
| 2026-04-21 13:26 | 24.01559 | 58.89125 | 35807 ft | 462 kts | 292° |
| 2026-04-21 13:27 | 24.03864 | 58.82524 | 35795 ft | 462 kts | 292° |
| 2026-04-21 13:27 | 24.06133 | 58.75973 | 35790 ft | 461 kts | 291° |
| 2026-04-21 13:28 | 24.08390 | 58.69440 | 35792 ft | 459 kts | 291° |
| 2026-04-21 13:28 | 24.10654 | 58.62884 | 35792 ft | 458 kts | 291° |
| 2026-04-21 13:29 | 24.12899 | 58.56372 | 35793 ft | 457 kts | 291° |
| 2026-04-21 13:29 | 24.15142 | 58.49859 | 35792 ft | 457 kts | 291° |
| 2026-04-21 13:30 | 24.17366 | 58.43391 | 35807 ft | 456 kts | 291° |
| 2026-04-21 13:30 | 24.19602 | 58.36877 | 35794 ft | 456 kts | 291° |
| 2026-04-21 13:31 | 24.21828 | 58.30380 | 35786 ft | 455 kts | 291° |
| 2026-04-21 13:31 | 24.24049 | 58.23890 | 35788 ft | 455 kts | 291° |
| 2026-04-21 13:32 | 24.26267 | 58.17396 | 35796 ft | 454 kts | 291° |
| 2026-04-21 13:32 | 24.28467 | 58.10946 | 35782 ft | 454 kts | 291° |
| 2026-04-21 13:33 | 24.30678 | 58.04455 | 35784 ft | 454 kts | 291° |
| 2026-04-21 13:33 | 24.32883 | 57.97968 | 35790 ft | 454 kts | 291° |
| 2026-04-21 13:34 | 24.35084 | 57.91485 | 35784 ft | 454 kts | 290° |
| 2026-04-21 13:34 | 24.37286 | 57.84987 | 35787 ft | 454 kts | 290° |
| 2026-04-21 13:35 | 24.39467 | 57.78539 | 35789 ft | 454 kts | 290° |
| 2026-04-21 13:35 | 24.41662 | 57.72044 | 35789 ft | 454 kts | 290° |
| 2026-04-21 13:36 | 24.43852 | 57.65549 | 35786 ft | 454 kts | 290° |
| 2026-04-21 13:36 | 24.46041 | 57.59050 | 35784 ft | 454 kts | 290° |
| 2026-04-21 13:37 | 24.48226 | 57.52550 | 35789 ft | 453 kts | 290° |
| 2026-04-21 13:37 | 24.50403 | 57.46062 | 35791 ft | 453 kts | 290° |
| 2026-04-21 13:38 | 24.52581 | 57.39564 | 35785 ft | 452 kts | 290° |
| 2026-04-21 13:38 | 24.54728 | 57.33146 | 35779 ft | 446 kts | 290° |
| 2026-04-21 13:39 | 24.55798 | 57.29943 | 35671 ft | 437 kts | 290° |
| 2026-04-21 13:39 | 24.56835 | 57.26837 | 35022 ft | 439 kts | 290° |
| 2026-04-21 13:39 | 24.57887 | 57.23685 | 34296 ft | 441 kts | 290° |
| 2026-04-21 13:39 | 24.58949 | 57.20499 | 33424 ft | 448 kts | 289° |
| 2026-04-21 13:40 | 24.60035 | 57.17238 | 32460 ft | 460 kts | 289° |
| 2026-04-21 13:40 | 24.60409 | 57.16113 | 32133 ft | 466 kts | 289° |
| 2026-04-21 13:40 | 24.61499 | 57.12834 | 31175 ft | 481 kts | 288° |
| 2026-04-21 13:41 | 24.62650 | 57.09368 | 30451 ft | 483 kts | 288° |
| 2026-04-21 13:41 | 24.63788 | 57.05944 | 29686 ft | 482 kts | 288° |
| 2026-04-21 13:41 | 24.64935 | 57.02493 | 28890 ft | 478 kts | 288° |
| 2026-04-21 13:41 | 24.66069 | 56.99076 | 28141 ft | 473 kts | 288° |
| 2026-04-21 13:42 | 24.67189 | 56.95698 | 27445 ft | 468 kts | 288° |
| 2026-04-21 13:42 | 24.68296 | 56.92355 | 26779 ft | 463 kts | 288° |
| 2026-04-21 13:42 | 24.69394 | 56.89037 | 26109 ft | 459 kts | 288° |
| 2026-04-21 13:42 | 24.70479 | 56.85753 | 25452 ft | 455 kts | 288° |
| 2026-04-21 13:43 | 24.71551 | 56.82505 | 24803 ft | 451 kts | 288° |
| 2026-04-21 13:43 | 24.72617 | 56.79274 | 24153 ft | 447 kts | 288° |
| 2026-04-21 13:43 | 24.73675 | 56.76065 | 23500 ft | 444 kts | 287° |
| 2026-04-21 13:43 | 24.74722 | 56.72886 | 22771 ft | 441 kts | 287° |
| 2026-04-21 13:44 | 24.75763 | 56.69721 | 22100 ft | 436 kts | 288° |
| 2026-04-21 13:44 | 24.76790 | 56.66597 | 21453 ft | 432 kts | 288° |
| 2026-04-21 13:44 | 24.77807 | 56.63502 | 20825 ft | 428 kts | 288° |
| 2026-04-21 13:44 | 24.78816 | 56.60430 | 20222 ft | 424 kts | 288° |
| 2026-04-21 13:45 | 24.79814 | 56.57387 | 19631 ft | 422 kts | 287° |
| 2026-04-21 13:45 | 24.80808 | 56.54358 | 19017 ft | 419 kts | 287° |
| 2026-04-21 13:45 | 24.81795 | 56.51345 | 18415 ft | 418 kts | 287° |
| 2026-04-21 13:45 | 24.82776 | 56.48344 | 17771 ft | 416 kts | 287° |
| 2026-04-21 13:46 | 24.83740 | 56.45394 | 17138 ft | 413 kts | 288° |
| 2026-04-21 13:46 | 24.84056 | 56.44427 | 16939 ft | 412 kts | 288° |
| 2026-04-21 13:46 | 24.85023 | 56.41466 | 16343 ft | 409 kts | 288° |
| 2026-04-21 13:47 | 24.85980 | 56.38534 | 15764 ft | 406 kts | 288° |
| 2026-04-21 13:47 | 24.86932 | 56.35615 | 15181 ft | 403 kts | 288° |
| 2026-04-21 13:47 | 24.87876 | 56.32720 | 14616 ft | 400 kts | 288° |
| 2026-04-21 13:47 | 24.88813 | 56.29845 | 14043 ft | 398 kts | 288° |
| 2026-04-21 13:48 | 24.89743 | 56.26988 | 13566 ft | 394 kts | 288° |
| 2026-04-21 13:48 | 24.90662 | 56.24163 | 13000 ft | 390 kts | 288° |
| 2026-04-21 13:48 | 24.91573 | 56.21359 | 12432 ft | 387 kts | 288° |
| 2026-04-21 13:48 | 24.92477 | 56.18575 | 11883 ft | 384 kts | 288° |
| 2026-04-21 13:49 | 24.93373 | 56.15813 | 11388 ft | 379 kts | 288° |
| 2026-04-21 13:49 | 24.94255 | 56.13098 | 11102 ft | 370 kts | 288° |
| 2026-04-21 13:49 | 24.95071 | 56.10587 | 10857 ft | 335 kts | 288° |
| 2026-04-21 13:49 | 24.95819 | 56.08284 | 10678 ft | 303 kts | 288° |
| 2026-04-21 13:50 | 24.96495 | 56.06203 | 10573 ft | 275 kts | 288° |
| 2026-04-21 13:50 | 24.97105 | 56.04322 | 10439 ft | 251 kts | 288° |
| 2026-04-21 13:50 | 24.97685 | 56.02524 | 10385 ft | 252 kts | 288° |
| 2026-04-21 13:50 | 24.98292 | 56.00636 | 10308 ft | 269 kts | 288° |
| 2026-04-21 13:51 | 24.98923 | 55.98674 | 10173 ft | 271 kts | 288° |
| 2026-04-21 13:51 | 24.99542 | 55.96755 | 10054 ft | 258 kts | 288° |
| 2026-04-21 13:51 | 25.00139 | 55.94906 | 9826 ft | 259 kts | 288° |
| 2026-04-21 13:51 | 25.00751 | 55.93006 | 9537 ft | 266 kts | 288° |
| 2026-04-21 13:52 | 25.01387 | 55.91028 | 9222 ft | 280 kts | 288° |
| 2026-04-21 13:52 | 25.02046 | 55.88984 | 8863 ft | 285 kts | 288° |
| 2026-04-21 13:52 | 25.02709 | 55.86925 | 8497 ft | 285 kts | 288° |
| 2026-04-21 13:52 | 25.03371 | 55.84872 | 8134 ft | 284 kts | 289° |
| 2026-04-21 13:53 | 25.04031 | 55.82821 | 7812 ft | 284 kts | 289° |
| 2026-04-21 13:53 | 25.04690 | 55.80773 | 7520 ft | 281 kts | 289° |
| 2026-04-21 13:53 | 25.05341 | 55.78750 | 7164 ft | 275 kts | 288° |
| 2026-04-21 13:53 | 25.05961 | 55.76818 | 6783 ft | 260 kts | 288° |
| 2026-04-21 13:54 | 25.06550 | 55.74987 | 6482 ft | 249 kts | 288° |
| 2026-04-21 13:54 | 25.07130 | 55.73175 | 6358 ft | 250 kts | 288° |
| 2026-04-21 13:54 | 25.07705 | 55.71383 | 6170 ft | 244 kts | 288° |
| 2026-04-21 13:54 | 25.08261 | 55.69653 | 5992 ft | 238 kts | 288° |
| 2026-04-21 13:55 | 25.08808 | 55.67945 | 5723 ft | 234 kts | 288° |
| 2026-04-21 13:55 | 25.09347 | 55.66262 | 5451 ft | 231 kts | 288° |
| 2026-04-21 13:55 | 25.09877 | 55.64606 | 5201 ft | 227 kts | 288° |
| 2026-04-21 13:55 | 25.10453 | 55.63001 | 4898 ft | 223 kts | 298° |
| 2026-04-21 13:56 | 25.11246 | 55.61550 | 4606 ft | 222 kts | 302° |
| 2026-04-21 13:56 | 25.12070 | 55.60125 | 4297 ft | 218 kts | 302° |
| 2026-04-21 13:56 | 25.12874 | 55.58757 | 3966 ft | 206 kts | 304° |
| 2026-04-21 13:56 | 25.13639 | 55.57443 | 3757 ft | 207 kts | 304° |
| 2026-04-21 13:57 | 25.14405 | 55.56082 | 3493 ft | 208 kts | 303° |
| 2026-04-21 13:57 | 25.15164 | 55.54715 | 3184 ft | 209 kts | 304° |
| 2026-04-21 13:57 | 25.15910 | 55.53368 | 2830 ft | 208 kts | 305° |
| 2026-04-21 13:57 | 25.16650 | 55.52029 | 2527 ft | 194 kts | 305° |
| 2026-04-21 13:58 | 25.17315 | 55.50825 | 2307 ft | 180 kts | 305° |
| 2026-04-21 13:58 | 25.17953 | 55.49670 | 2093 ft | 171 kts | 306° |
| 2026-04-21 13:58 | 25.18542 | 55.48606 | 1889 ft | 154 kts | 307° |
| 2026-04-21 13:58 | 25.19094 | 55.47598 | 1699 ft | 153 kts | 307° |
| 2026-04-21 13:59 | 25.19659 | 55.46605 | 1462 ft | 152 kts | 308° |
| 2026-04-21 13:59 | 25.20200 | 55.45624 | 1296 ft | 150 kts | 307° |
| 2026-04-21 13:59 | 25.20742 | 55.44630 | 1062 ft | 149 kts | 304° |
| 2026-04-21 13:59 | 25.21286 | 55.43647 | 939 ft | 158 kts | 306° |
| 2026-04-21 14:00 | 25.21875 | 55.42595 | 715 ft | 162 kts | 304° |
| 2026-04-21 14:00 | 25.22427 | 55.41581 | 481 ft | 149 kts | 305° |
| 2026-04-21 14:00 | 25.22968 | 55.40608 | 360 ft | 152 kts | 303° |
| 2026-04-21 14:00 | 25.23515 | 55.39615 | 121 ft | 150 kts | 304° |
| 2026-04-21 14:01 | 25.24049 | 55.38653 | 34 ft | 138 kts | 302° |
| 2026-04-21 14:01 | 25.24473 | 55.37910 | 26 ft | 83 kts | 302° |
| 2026-04-21 14:01 | 25.24604 | 55.37583 | 18 ft | 22 kts | 277° |
| 2026-04-21 14:01 | 25.24615 | 55.37443 | 18 ft | 12 kts | 271° |
| 2026-04-21 14:02 | 25.24617 | 55.37383 | 18 ft | 12 kts | 271° |
| 2026-04-21 14:02 | 25.24630 | 55.37264 | 27 ft | 12 kts | 292° |